Mathilde Maersk — OUJS2 — position and weather

sailwx.info

Track history (hours):
 
Tides and Currents Weather Stations Pressure Air Temp Water Temp Dewpoint Dewpoint Depression Visibility Wind Speed Wind Dir Waves Ship Positions

Mathilde Maersk

Last reported at 2014-Dec-13 20:30 UTC. Time now 2014-Dec-21 01:11 UTC.
Position N 37°13' E 002°54'.

Length 367 m; draft 12.2 m.

Type: Ship (hazmat cat B). MMSI: 220597990.

Date/timePositionNaut miles runAvg speedWind from/ knotsBaromVisibWave heightAir tempDewpointWater temp
2014-Dec-13 20:30N 37°13' E 002°54'2018.7
2014-Dec-13 19:27N 37°10' E 002°29'37623.4
2014-Dec-13 03:21N 35°60' W 005°11'27519.9
2014-Dec-12 13:33N 38°27' W 010°02'2323.2
2014-Dec-12 12:33N 38°50' W 010°07'2423.4
2014-Dec-12 11:31N 39°15' W 010°07'71517.7
2014-Dec-10 19:09N 49°58' W 002°51'9814.2
2014-Dec-10 12:16N 50°25' W 000°24'2715.7
2014-Dec-10 10:32N 50°33' E 000°17'1515.5
2014-Dec-10 09:33N 50°38' E 000°39'1717.0
2014-Dec-10 08:33N 50°47' E 001°02'1817.9
2014-Dec-10 07:33N 50°59' E 001°23'1716.9
2014-Dec-10 06:33N 51°10' E 001°43'1615.7
2014-Dec-10 05:33N 51°24' E 001°55'1514.8
2014-Dec-10 04:33N 51°36' E 002°10'1514.7
2014-Dec-10 03:33N 51°48' E 002°23'17 5.2
2014-Dec-10 00:21N 52°04' E 002°32'30 5.1
2014-Dec-09 18:30N 52°04' E 003°20'1211.5
2014-Dec-09 17:25N 52°04' E 003°41'910.1
2014-Dec-09 16:33N 52°02' E 003°54'7 6.9
2014-Dec-09 15:33N 51°58' E 004°03'1 0.5
2014-Dec-09 14:33N 51°57' E 004°02'0 0.0
2014-Dec-09 13:34N 51°57' E 004°02'0 0.0
2014-Dec-09 12:33N 51°57' E 004°02'0 0.0
2014-Dec-09 11:33N 51°57' E 004°02'0 0.0
2014-Dec-09 10:33N 51°57' E 004°02'0 0.0
2014-Dec-09 09:33N 51°57' E 004°02'0 0.0
2014-Dec-09 08:33N 51°57' E 004°02'0 0.0
2014-Dec-09 07:33N 51°57' E 004°02'0 0.0
2014-Dec-09 06:33N 51°57' E 004°02'0 0.0
2014-Dec-09 05:33N 51°57' E 004°02'0 0.0
2014-Dec-09 04:33N 51°57' E 004°02'0 0.0
2014-Dec-09 03:33N 51°57' E 004°02'0 0.0
2014-Dec-09 02:33N 51°57' E 004°02'0 0.0
2014-Dec-09 01:33N 51°57' E 004°02'0 0.0
2014-Dec-09 00:34N 51°57' E 004°02'0 0.0
2014-Dec-08 23:33N 51°57' E 004°02'0 0.0
2014-Dec-08 22:33N 51°57' E 004°02'1 1.0
2014-Dec-08 21:33N 51°58' E 004°04'5 5.3
2014-Dec-08 20:33N 51°60' E 003°56'7 6.7
2014-Dec-08 19:33N 52°02' E 003°45'9 8.9
2014-Dec-08 18:33N 52°11' E 003°46'1413.6
2014-Dec-08 17:33N 52°24' E 003°49'1212.3
2014-Dec-08 16:33N 52°36' E 003°52'1211.5
2014-Dec-08 15:33N 52°47' E 003°57'1111.4
2014-Dec-08 14:33N 52°58' E 004°01'1211.7
2014-Dec-08 13:33N 53°06' E 004°16'2712.2
2014-Dec-08 11:19N 53°30' E 004°36'912.1
2014-Dec-08 10:33N 53°39' E 004°41'1311.6
2014-Dec-08 09:27N 53°51' E 004°49'2311.7
2014-Dec-08 07:26N 54°13' E 005°03'1312.0
2014-Dec-08 06:22N 54°25' E 005°13'19312.1
2014-Dec-07 14:26N 57°11' E 008°08'86 9.7
2014-Dec-07 05:33N 57°56' E 010°24'5 4.4
2014-Dec-07 04:27N 57°56' E 010°33'4 4.3
2014-Dec-07 03:33N 57°56' E 010°40'4 3.6
2014-Dec-07 02:33N 57°56' E 010°47'4 4.3
2014-Dec-07 01:33N 57°56' E 010°55'5 4.6
2014-Dec-07 00:33N 57°54' E 011°03'5 5.4
2014-Dec-06 23:34N 57°50' E 011°10'6 5.5
2014-Dec-06 22:33N 57°46' E 011°17'5 5.1
2014-Dec-06 21:33N 57°42' E 011°23'5 4.7
2014-Dec-06 20:34N 57°39' E 011°29'4 4.0
2014-Dec-06 19:33N 57°36' E 011°35'8 8.3
2014-Dec-06 18:33N 57°41' E 011°48'2 2.0
2014-Dec-06 17:33N 57°41' E 011°52'0 0.0
2014-Dec-06 16:33N 57°41' E 011°52'0 0.0
2014-Dec-06 15:33N 57°41' E 011°52'0 0.0
2014-Dec-06 14:33N 57°41' E 011°52'0 0.0
2014-Dec-06 13:33N 57°41' E 011°52'0 0.0
2014-Dec-06 12:33N 57°41' E 011°52'0 0.0
2014-Dec-06 11:33N 57°41' E 011°52'0 0.0
2014-Dec-06 10:33N 57°41' E 011°52'0 0.0
2014-Dec-06 09:33N 57°41' E 011°52'0 0.0
2014-Dec-06 08:30N 57°41' E 011°52'0 0.0
2014-Dec-06 07:33N 57°41' E 011°52'0 0.0
2014-Dec-06 06:33N 57°41' E 011°52'0 0.0
2014-Dec-06 05:33N 57°41' E 011°52'0 0.0
2014-Dec-06 04:34N 57°41' E 011°52'1 1.0
2014-Dec-06 03:33N 57°41' E 011°50'1110.6
2014-Dec-06 02:33N 57°37' E 011°32'1110.7
2014-Dec-06 01:33N 57°45' E 011°18'1312.8
2014-Dec-06 00:33N 57°53' E 011°00'1313.3
2014-Dec-05 23:33N 57°55' E 010°35'1212.2
2014-Dec-05 22:33N 57°56' E 010°12'4113.0
2014-Dec-05 19:22N 57°37' E 009°04'1113.5
2014-Dec-05 18:33N 57°31' E 008°46'4613.4
2014-Dec-05 15:08N 56°59' E 007°48'8913.1
2014-Dec-05 08:22N 55°36' E 006°46'1012.8
2014-Dec-05 07:33N 55°26' E 006°46'1312.9
2014-Dec-05 06:33N 55°13' E 006°47'1312.7
2014-Dec-05 05:33N 55°01' E 006°48'1312.7
2014-Dec-05 04:33N 54°49' E 006°57'1313.0
2014-Dec-05 03:33N 54°37' E 007°06'1313.4
2014-Dec-05 02:33N 54°25' E 007°17'1413.6
2014-Dec-05 01:33N 54°13' E 007°27'1313.5
2014-Dec-05 00:33N 54°01' E 007°38'1515.2
2014-Dec-04 23:33N 53°51' E 007°58'1616.6
2014-Dec-04 22:33N 53°42' E 008°21'9 8.5
2014-Dec-04 21:32N 53°35' E 008°31'0 0.3
2014-Dec-04 20:32N 53°36' E 008°31'0 0.0
2014-Dec-04 19:32N 53°36' E 008°31'0 0.0
2014-Dec-04 18:32N 53°36' E 008°31'0 0.0
2014-Dec-04 17:32N 53°36' E 008°31'0 0.0
2014-Dec-04 16:32N 53°36' E 008°31'0 0.0
2014-Dec-04 15:32N 53°36' E 008°31'0 0.0
2014-Dec-04 14:32N 53°36' E 008°31'0 0.0
2014-Dec-04 13:32N 53°36' E 008°31'0 0.0
2014-Dec-04 12:32N 53°36' E 008°31'0 0.0
2014-Dec-04 11:32N 53°36' E 008°31'0 0.0
2014-Dec-04 10:32N 53°36' E 008°31'0 0.0
2014-Dec-04 09:32N 53°36' E 008°31'0 0.0
2014-Dec-04 08:32N 53°36' E 008°31'0 0.0
2014-Dec-04 07:32N 53°36' E 008°31'0 0.0
2014-Dec-04 06:32N 53°36' E 008°31'0 0.0
2014-Dec-04 05:32N 53°36' E 008°31'0 0.0
2014-Dec-04 04:32N 53°36' E 008°31'0 0.0
2014-Dec-04 03:32N 53°36' E 008°31'0 0.0
2014-Dec-04 02:32N 53°36' E 008°31'0 0.0
2014-Dec-04 01:32N 53°36' E 008°31'0 0.0
2014-Dec-04 00:32N 53°36' E 008°31'0 0.0
2014-Dec-03 23:32N 53°36' E 008°31'0 0.0
2014-Dec-03 22:32N 53°36' E 008°31'0 0.0
2014-Dec-03 21:32N 53°36' E 008°31'0 0.0
2014-Dec-03 20:32N 53°36' E 008°31'  
Track history (hours):
 
Tides and Currents Weather Stations Pressure Air Temp Water Temp Dewpoint Dewpoint Depression Visibility Wind Speed Wind Dir Waves Ship Positions

Mathilde Maersk

Last reported at 2014-Dec-13 20:30 UTC. Time now 2014-Dec-21 01:11 UTC.
Position N 37°13' E 002°54'.

Length 367 m; draft 12.2 m.

Type: Ship (hazmat cat B). MMSI: 220597990.

Date/timePositionNaut miles runAvg speedWind from/ knotsBaromVisibWave heightAir tempDewpointWater temp
2014-Dec-13 20:30N 37°13' E 002°54'2018.7
2014-Dec-13 19:27N 37°10' E 002°29'37623.4
2014-Dec-13 03:21N 35°60' W 005°11'27519.9
2014-Dec-12 13:33N 38°27' W 010°02'2323.2
2014-Dec-12 12:33N 38°50' W 010°07'2423.4
2014-Dec-12 11:31N 39°15' W 010°07'71517.7
2014-Dec-10 19:09N 49°58' W 002°51'9814.2
2014-Dec-10 12:16N 50°25' W 000°24'2715.7
2014-Dec-10 10:32N 50°33' E 000°17'1515.5
2014-Dec-10 09:33N 50°38' E 000°39'1717.0
2014-Dec-10 08:33N 50°47' E 001°02'1817.9
2014-Dec-10 07:33N 50°59' E 001°23'1716.9
2014-Dec-10 06:33N 51°10' E 001°43'1615.7
2014-Dec-10 05:33N 51°24' E 001°55'1514.8
2014-Dec-10 04:33N 51°36' E 002°10'1514.7
2014-Dec-10 03:33N 51°48' E 002°23'17 5.2
2014-Dec-10 00:21N 52°04' E 002°32'30 5.1
2014-Dec-09 18:30N 52°04' E 003°20'1211.5
2014-Dec-09 17:25N 52°04' E 003°41'910.1
2014-Dec-09 16:33N 52°02' E 003°54'7 6.9
2014-Dec-09 15:33N 51°58' E 004°03'1 0.5
2014-Dec-09 14:33N 51°57' E 004°02'0 0.0
2014-Dec-09 13:34N 51°57' E 004°02'0 0.0
2014-Dec-09 12:33N 51°57' E 004°02'0 0.0
2014-Dec-09 11:33N 51°57' E 004°02'0 0.0
2014-Dec-09 10:33N 51°57' E 004°02'0 0.0
2014-Dec-09 09:33N 51°57' E 004°02'0 0.0
2014-Dec-09 08:33N 51°57' E 004°02'0 0.0
2014-Dec-09 07:33N 51°57' E 004°02'0 0.0
2014-Dec-09 06:33N 51°57' E 004°02'0 0.0
2014-Dec-09 05:33N 51°57' E 004°02'0 0.0
2014-Dec-09 04:33N 51°57' E 004°02'0 0.0
2014-Dec-09 03:33N 51°57' E 004°02'0 0.0
2014-Dec-09 02:33N 51°57' E 004°02'0 0.0
2014-Dec-09 01:33N 51°57' E 004°02'0 0.0
2014-Dec-09 00:34N 51°57' E 004°02'0 0.0
2014-Dec-08 23:33N 51°57' E 004°02'0 0.0
2014-Dec-08 22:33N 51°57' E 004°02'1 1.0
2014-Dec-08 21:33N 51°58' E 004°04'5 5.3
2014-Dec-08 20:33N 51°60' E 003°56'7 6.7
2014-Dec-08 19:33N 52°02' E 003°45'9 8.9
2014-Dec-08 18:33N 52°11' E 003°46'1413.6
2014-Dec-08 17:33N 52°24' E 003°49'1212.3
2014-Dec-08 16:33N 52°36' E 003°52'1211.5
2014-Dec-08 15:33N 52°47' E 003°57'1111.4
2014-Dec-08 14:33N 52°58' E 004°01'1211.7
2014-Dec-08 13:33N 53°06' E 004°16'2712.2
2014-Dec-08 11:19N 53°30' E 004°36'912.1
2014-Dec-08 10:33N 53°39' E 004°41'1311.6
2014-Dec-08 09:27N 53°51' E 004°49'2311.7
2014-Dec-08 07:26N 54°13' E 005°03'1312.0
2014-Dec-08 06:22N 54°25' E 005°13'19312.1
2014-Dec-07 14:26N 57°11' E 008°08'86 9.7
2014-Dec-07 05:33N 57°56' E 010°24'5 4.4
2014-Dec-07 04:27N 57°56' E 010°33'4 4.3
2014-Dec-07 03:33N 57°56' E 010°40'4 3.6
2014-Dec-07 02:33N 57°56' E 010°47'4 4.3
2014-Dec-07 01:33N 57°56' E 010°55'5 4.6
2014-Dec-07 00:33N 57°54' E 011°03'5 5.4
2014-Dec-06 23:34N 57°50' E 011°10'6 5.5
2014-Dec-06 22:33N 57°46' E 011°17'5 5.1
2014-Dec-06 21:33N 57°42' E 011°23'5 4.7
2014-Dec-06 20:34N 57°39' E 011°29'4 4.0
2014-Dec-06 19:33N 57°36' E 011°35'8 8.3
2014-Dec-06 18:33N 57°41' E 011°48'2 2.0
2014-Dec-06 17:33N 57°41' E 011°52'0 0.0
2014-Dec-06 16:33N 57°41' E 011°52'0 0.0
2014-Dec-06 15:33N 57°41' E 011°52'0 0.0
2014-Dec-06 14:33N 57°41' E 011°52'0 0.0
2014-Dec-06 13:33N 57°41' E 011°52'0 0.0
2014-Dec-06 12:33N 57°41' E 011°52'0 0.0
2014-Dec-06 11:33N 57°41' E 011°52'0 0.0
2014-Dec-06 10:33N 57°41' E 011°52'0 0.0
2014-Dec-06 09:33N 57°41' E 011°52'0 0.0
2014-Dec-06 08:30N 57°41' E 011°52'0 0.0
2014-Dec-06 07:33N 57°41' E 011°52'0 0.0
2014-Dec-06 06:33N 57°41' E 011°52'0 0.0
2014-Dec-06 05:33N 57°41' E 011°52'0 0.0
2014-Dec-06 04:34N 57°41' E 011°52'1 1.0
2014-Dec-06 03:33N 57°41' E 011°50'1110.6
2014-Dec-06 02:33N 57°37' E 011°32'1110.7
2014-Dec-06 01:33N 57°45' E 011°18'1312.8
2014-Dec-06 00:33N 57°53' E 011°00'1313.3
2014-Dec-05 23:33N 57°55' E 010°35'1212.2
2014-Dec-05 22:33N 57°56' E 010°12'4113.0
2014-Dec-05 19:22N 57°37' E 009°04'1113.5
2014-Dec-05 18:33N 57°31' E 008°46'4613.4
2014-Dec-05 15:08N 56°59' E 007°48'8913.1
2014-Dec-05 08:22N 55°36' E 006°46'1012.8
2014-Dec-05 07:33N 55°26' E 006°46'1312.9
2014-Dec-05 06:33N 55°13' E 006°47'1312.7
2014-Dec-05 05:33N 55°01' E 006°48'1312.7
2014-Dec-05 04:33N 54°49' E 006°57'1313.0
2014-Dec-05 03:33N 54°37' E 007°06'1313.4
2014-Dec-05 02:33N 54°25' E 007°17'1413.6
2014-Dec-05 01:33N 54°13' E 007°27'1313.5
2014-Dec-05 00:33N 54°01' E 007°38'1515.2
2014-Dec-04 23:33N 53°51' E 007°58'1616.6
2014-Dec-04 22:33N 53°42' E 008°21'9 8.5
2014-Dec-04 21:32N 53°35' E 008°31'0 0.3
2014-Dec-04 20:32N 53°36' E 008°31'0 0.0
2014-Dec-04 19:32N 53°36' E 008°31'0 0.0
2014-Dec-04 18:32N 53°36' E 008°31'0 0.0
2014-Dec-04 17:32N 53°36' E 008°31'0 0.0
2014-Dec-04 16:32N 53°36' E 008°31'0 0.0
2014-Dec-04 15:32N 53°36' E 008°31'0 0.0
2014-Dec-04 14:32N 53°36' E 008°31'0 0.0
2014-Dec-04 13:32N 53°36' E 008°31'0 0.0
2014-Dec-04 12:32N 53°36' E 008°31'0 0.0
2014-Dec-04 11:32N 53°36' E 008°31'0 0.0
2014-Dec-04 10:32N 53°36' E 008°31'0 0.0
2014-Dec-04 09:32N 53°36' E 008°31'0 0.0
2014-Dec-04 08:32N 53°36' E 008°31'0 0.0
2014-Dec-04 07:32N 53°36' E 008°31'0 0.0
2014-Dec-04 06:32N 53°36' E 008°31'0 0.0
2014-Dec-04 05:32N 53°36' E 008°31'0 0.0
2014-Dec-04 04:32N 53°36' E 008°31'0 0.0
2014-Dec-04 03:32N 53°36' E 008°31'0 0.0
2014-Dec-04 02:32N 53°36' E 008°31'0 0.0
2014-Dec-04 01:32N 53°36' E 008°31'0 0.0
2014-Dec-04 00:32N 53°36' E 008°31'0 0.0
2014-Dec-03 23:32N 53°36' E 008°31'0 0.0
2014-Dec-03 22:32N 53°36' E 008°31'0 0.0
2014-Dec-03 21:32N 53°36' E 008°31'0 0.0
2014-Dec-03 20:32N 53°36' E 008°31'  

Dump ship's entire track history